sensor_id;sensor_type;location;lat;lon;timestamp;P1;durP1;ratioP1;P2;durP2;ratioP2
40637;SDS011;26336;44.696;10.622;2023-08-06T00:00:28;1.27;;;0.73;;
40637;SDS011;26336;44.696;10.622;2023-08-06T00:03:32;3.47;;;0.70;;
40637;SDS011;26336;44.696;10.622;2023-08-06T00:06:36;1.05;;;0.75;;
40637;SDS011;26336;44.696;10.622;2023-08-06T00:09:40;2.03;;;0.90;;
40637;SDS011;26336;44.696;10.622;2023-08-06T00:12:43;0.85;;;0.80;;
40637;SDS011;26336;44.696;10.622;2023-08-06T00:15:48;3.20;;;0.68;;
40637;SDS011;26336;44.696;10.622;2023-08-06T00:18:52;0.65;;;0.50;;
40637;SDS011;26336;44.696;10.622;2023-08-06T00:21:56;1.70;;;0.80;;
40637;SDS011;26336;44.696;10.622;2023-08-06T00:25:00;0.55;;;0.38;;
40637;SDS011;26336;44.696;10.622;2023-08-06T00:28:04;3.08;;;0.90;;
40637;SDS011;26336;44.696;10.622;2023-08-06T00:31:08;1.15;;;0.63;;
40637;SDS011;26336;44.696;10.622;2023-08-06T00:34:12;2.28;;;0.98;;
40637;SDS011;26336;44.696;10.622;2023-08-06T00:37:16;3.20;;;0.80;;
40637;SDS011;26336;44.696;10.622;2023-08-06T00:40:21;1.08;;;0.50;;
40637;SDS011;26336;44.696;10.622;2023-08-06T00:43:26;0.93;;;0.70;;
40637;SDS011;26336;44.696;10.622;2023-08-06T00:46:31;0.40;;;0.40;;
40637;SDS011;26336;44.696;10.622;2023-08-06T00:49:36;0.80;;;0.50;;
40637;SDS011;26336;44.696;10.622;2023-08-06T00:52:41;0.75;;;0.50;;
40637;SDS011;26336;44.696;10.622;2023-08-06T00:55:46;0.77;;;0.50;;
40637;SDS011;26336;44.696;10.622;2023-08-06T00:58:50;0.55;;;0.45;;
40637;SDS011;26336;44.696;10.622;2023-08-06T01:01:55;0.85;;;0.68;;
40637;SDS011;26336;44.696;10.622;2023-08-06T01:04:59;1.27;;;0.85;;
40637;SDS011;26336;44.696;10.622;2023-08-06T01:14:47;2.05;;;0.57;;
40637;SDS011;26336;44.696;10.622;2023-08-06T01:18:01;1.20;;;0.70;;
40637;SDS011;26336;44.696;10.622;2023-08-06T01:21:05;1.17;;;0.60;;
40637;SDS011;26336;44.696;10.622;2023-08-06T01:24:09;1.83;;;0.60;;
40637;SDS011;26336;44.696;10.622;2023-08-06T01:27:16;0.88;;;0.50;;
40637;SDS011;26336;44.696;10.622;2023-08-06T01:30:29;0.82;;;0.60;;
40637;SDS011;26336;44.696;10.622;2023-08-06T01:33:39;1.67;;;0.60;;
40637;SDS011;26336;44.696;10.622;2023-08-06T01:36:47;0.65;;;0.50;;
40637;SDS011;26336;44.696;10.622;2023-08-06T01:39:52;1.27;;;0.60;;
40637;SDS011;26336;44.696;10.622;2023-08-06T01:42:56;1.15;;;0.50;;
40637;SDS011;26336;44.696;10.622;2023-08-06T01:46:00;1.67;;;0.50;;
40637;SDS011;26336;44.696;10.622;2023-08-06T01:49:03;2.97;;;0.63;;
40637;SDS011;26336;44.696;10.622;2023-08-06T01:52:07;1.92;;;0.60;;
40637;SDS011;26336;44.696;10.622;2023-08-06T01:55:11;1.35;;;0.60;;
40637;SDS011;26336;44.696;10.622;2023-08-06T01:58:15;2.08;;;0.80;;
40637;SDS011;26336;44.696;10.622;2023-08-06T02:01:19;0.75;;;0.50;;
40637;SDS011;26336;44.696;10.622;2023-08-06T02:04:23;1.10;;;0.50;;
40637;SDS011;26336;44.696;10.622;2023-08-06T02:07:27;1.48;;;0.60;;
40637;SDS011;26336;44.696;10.622;2023-08-06T02:10:31;1.42;;;0.50;;
40637;SDS011;26336;44.696;10.622;2023-08-06T02:13:36;0.90;;;0.50;;
40637;SDS011;26336;44.696;10.622;2023-08-06T02:16:40;0.73;;;0.50;;
40637;SDS011;26336;44.696;10.622;2023-08-06T02:19:43;0.82;;;0.52;;
40637;SDS011;26336;44.696;10.622;2023-08-06T02:22:48;2.25;;;0.68;;
40637;SDS011;26336;44.696;10.622;2023-08-06T02:29:05;4.00;;;0.90;;
40637;SDS011;26336;44.696;10.622;2023-08-06T02:32:09;1.55;;;0.63;;
40637;SDS011;26336;44.696;10.622;2023-08-06T02:35:13;1.95;;;0.60;;
40637;SDS011;26336;44.696;10.622;2023-08-06T02:38:17;1.10;;;0.55;;
40637;SDS011;26336;44.696;10.622;2023-08-06T02:41:21;2.30;;;0.90;;
40637;SDS011;26336;44.696;10.622;2023-08-06T02:44:28;1.83;;;0.80;;
40637;SDS011;26336;44.696;10.622;2023-08-06T02:47:32;1.70;;;0.63;;
40637;SDS011;26336;44.696;10.622;2023-08-06T02:50:39;0.90;;;0.60;;
40637;SDS011;26336;44.696;10.622;2023-08-06T02:53:44;0.77;;;0.70;;
40637;SDS011;26336;44.696;10.622;2023-08-06T02:56:52;0.60;;;0.40;;
40637;SDS011;26336;44.696;10.622;2023-08-06T03:00:03;1.27;;;0.75;;
40637;SDS011;26336;44.696;10.622;2023-08-06T03:03:08;0.60;;;0.60;;
40637;SDS011;26336;44.696;10.622;2023-08-06T03:06:22;2.60;;;0.85;;
40637;SDS011;26336;44.696;10.622;2023-08-06T03:09:30;2.38;;;0.70;;
40637;SDS011;26336;44.696;10.622;2023-08-06T03:12:35;1.02;;;0.70;;
40637;SDS011;26336;44.696;10.622;2023-08-06T03:15:41;1.17;;;0.63;;
40637;SDS011;26336;44.696;10.622;2023-08-06T03:18:48;2.80;;;1.00;;
40637;SDS011;26336;44.696;10.622;2023-08-06T03:21:52;1.55;;;1.00;;
40637;SDS011;26336;44.696;10.622;2023-08-06T03:24:57;1.52;;;0.88;;
40637;SDS011;26336;44.696;10.622;2023-08-06T03:28:03;2.70;;;0.90;;
40637;SDS011;26336;44.696;10.622;2023-08-06T03:31:07;1.90;;;0.90;;
40637;SDS011;26336;44.696;10.622;2023-08-06T03:34:16;1.02;;;0.90;;
40637;SDS011;26336;44.696;10.622;2023-08-06T03:37:21;2.90;;;0.85;;
40637;SDS011;26336;44.696;10.622;2023-08-06T03:40:27;3.03;;;0.88;;
40637;SDS011;26336;44.696;10.622;2023-08-06T03:43:33;2.55;;;1.35;;
40637;SDS011;26336;44.696;10.622;2023-08-06T03:46:38;1.30;;;0.80;;
40637;SDS011;26336;44.696;10.622;2023-08-06T03:49:44;2.55;;;1.05;;
40637;SDS011;26336;44.696;10.622;2023-08-06T03:52:50;1.13;;;1.00;;
40637;SDS011;26336;44.696;10.622;2023-08-06T03:55:55;3.35;;;1.02;;
40637;SDS011;26336;44.696;10.622;2023-08-06T03:59:02;1.63;;;1.33;;
40637;SDS011;26336;44.696;10.622;2023-08-06T04:02:06;3.03;;;0.75;;
40637;SDS011;26336;44.696;10.622;2023-08-06T04:05:10;1.83;;;1.20;;
40637;SDS011;26336;44.696;10.622;2023-08-06T04:08:15;1.35;;;0.98;;
40637;SDS011;26336;44.696;10.622;2023-08-06T04:11:19;1.80;;;1.02;;
40637;SDS011;26336;44.696;10.622;2023-08-06T04:14:23;2.17;;;1.60;;
40637;SDS011;26336;44.696;10.622;2023-08-06T04:17:27;1.27;;;1.10;;
40637;SDS011;26336;44.696;10.622;2023-08-06T04:20:31;3.53;;;1.15;;
40637;SDS011;26336;44.696;10.622;2023-08-06T04:23:35;1.30;;;1.05;;
40637;SDS011;26336;44.696;10.622;2023-08-06T04:26:43;1.10;;;1.00;;
40637;SDS011;26336;44.696;10.622;2023-08-06T04:29:48;5.13;;;1.33;;
40637;SDS011;26336;44.696;10.622;2023-08-06T04:32:53;2.63;;;1.20;;
40637;SDS011;26336;44.696;10.622;2023-08-06T04:35:59;2.33;;;1.10;;
40637;SDS011;26336;44.696;10.622;2023-08-06T04:39:04;1.73;;;1.52;;
40637;SDS011;26336;44.696;10.622;2023-08-06T04:42:08;2.13;;;1.30;;
40637;SDS011;26336;44.696;10.622;2023-08-06T04:45:13;4.03;;;1.42;;
40637;SDS011;26336;44.696;10.622;2023-08-06T04:48:17;2.30;;;1.00;;
40637;SDS011;26336;44.696;10.622;2023-08-06T04:51:21;4.95;;;1.17;;
40637;SDS011;26336;44.696;10.622;2023-08-06T04:54:25;2.25;;;1.50;;
40637;SDS011;26336;44.696;10.622;2023-08-06T04:57:29;4.53;;;1.25;;
40637;SDS011;26336;44.696;10.622;2023-08-06T05:00:33;2.58;;;1.00;;
40637;SDS011;26336;44.696;10.622;2023-08-06T05:03:37;2.92;;;1.20;;
40637;SDS011;26336;44.696;10.622;2023-08-06T05:06:41;1.42;;;1.00;;
40637;SDS011;26336;44.696;10.622;2023-08-06T05:09:44;0.98;;;0.85;;
40637;SDS011;26336;44.696;10.622;2023-08-06T05:12:49;1.83;;;1.00;;
40637;SDS011;26336;44.696;10.622;2023-08-06T05:15:53;1.52;;;0.80;;
40637;SDS011;26336;44.696;10.622;2023-08-06T05:18:57;1.85;;;0.85;;
40637;SDS011;26336;44.696;10.622;2023-08-06T05:22:01;1.17;;;0.70;;
40637;SDS011;26336;44.696;10.622;2023-08-06T05:25:05;1.35;;;0.80;;
40637;SDS011;26336;44.696;10.622;2023-08-06T05:28:10;3.08;;;0.80;;
40637;SDS011;26336;44.696;10.622;2023-08-06T05:31:14;1.30;;;0.57;;
40637;SDS011;26336;44.696;10.622;2023-08-06T05:34:17;2.20;;;0.77;;
40637;SDS011;26336;44.696;10.622;2023-08-06T05:37:21;1.90;;;0.70;;
40637;SDS011;26336;44.696;10.622;2023-08-06T05:40:25;1.63;;;0.65;;
40637;SDS011;26336;44.696;10.622;2023-08-06T05:43:29;3.72;;;0.88;;
40637;SDS011;26336;44.696;10.622;2023-08-06T05:46:33;0.93;;;0.65;;
40637;SDS011;26336;44.696;10.622;2023-08-06T05:49:37;0.90;;;0.73;;
40637;SDS011;26336;44.696;10.622;2023-08-06T05:52:42;2.15;;;0.70;;
40637;SDS011;26336;44.696;10.622;2023-08-06T05:55:45;1.42;;;0.80;;
40637;SDS011;26336;44.696;10.622;2023-08-06T05:58:50;0.80;;;0.70;;
40637;SDS011;26336;44.696;10.622;2023-08-06T06:01:56;2.97;;;0.82;;
40637;SDS011;26336;44.696;10.622;2023-08-06T06:05:01;1.15;;;0.70;;
40637;SDS011;26336;44.696;10.622;2023-08-06T06:08:05;1.73;;;0.85;;
40637;SDS011;26336;44.696;10.622;2023-08-06T06:11:09;1.95;;;0.77;;
40637;SDS011;26336;44.696;10.622;2023-08-06T06:14:13;1.80;;;0.93;;
40637;SDS011;26336;44.696;10.622;2023-08-06T06:17:17;1.77;;;0.90;;
40637;SDS011;26336;44.696;10.622;2023-08-06T06:20:21;2.38;;;1.00;;
40637;SDS011;26336;44.696;10.622;2023-08-06T06:23:24;1.67;;;1.00;;
40637;SDS011;26336;44.696;10.622;2023-08-06T06:26:28;1.10;;;0.93;;
40637;SDS011;26336;44.696;10.622;2023-08-06T06:29:33;2.22;;;0.98;;
40637;SDS011;26336;44.696;10.622;2023-08-06T06:32:37;3.78;;;1.50;;
40637;SDS011;26336;44.696;10.622;2023-08-06T06:35:41;2.65;;;1.55;;
40637;SDS011;26336;44.696;10.622;2023-08-06T06:38:45;2.53;;;1.70;;
40637;SDS011;26336;44.696;10.622;2023-08-06T06:41:49;1.67;;;1.50;;
40637;SDS011;26336;44.696;10.622;2023-08-06T06:45:02;2.95;;;1.85;;
40637;SDS011;26336;44.696;10.622;2023-08-06T06:48:07;3.08;;;1.70;;
40637;SDS011;26336;44.696;10.622;2023-08-06T06:51:11;2.45;;;1.33;;
40637;SDS011;26336;44.696;10.622;2023-08-06T06:54:15;2.45;;;1.70;;
40637;SDS011;26336;44.696;10.622;2023-08-06T06:57:18;1.83;;;1.38;;
40637;SDS011;26336;44.696;10.622;2023-08-06T07:00:23;1.55;;;1.15;;
40637;SDS011;26336;44.696;10.622;2023-08-06T07:03:26;2.20;;;1.75;;
40637;SDS011;26336;44.696;10.622;2023-08-06T07:06:31;1.90;;;1.35;;
40637;SDS011;26336;44.696;10.622;2023-08-06T07:09:35;2.05;;;1.50;;
40637;SDS011;26336;44.696;10.622;2023-08-06T07:12:39;1.17;;;1.08;;
40637;SDS011;26336;44.696;10.622;2023-08-06T07:15:43;1.70;;;1.08;;
40637;SDS011;26336;44.696;10.622;2023-08-06T07:18:47;2.15;;;1.60;;
40637;SDS011;26336;44.696;10.622;2023-08-06T07:21:51;1.98;;;1.40;;
40637;SDS011;26336;44.696;10.622;2023-08-06T07:24:55;1.85;;;1.45;;
40637;SDS011;26336;44.696;10.622;2023-08-06T07:27:59;2.22;;;1.60;;
40637;SDS011;26336;44.696;10.622;2023-08-06T07:31:09;1.38;;;1.08;;
40637;SDS011;26336;44.696;10.622;2023-08-06T07:34:14;2.47;;;1.20;;
40637;SDS011;26336;44.696;10.622;2023-08-06T07:37:19;4.18;;;2.05;;
40637;SDS011;26336;44.696;10.622;2023-08-06T07:40:22;3.60;;;1.63;;
40637;SDS011;26336;44.696;10.622;2023-08-06T07:43:26;2.10;;;1.80;;
40637;SDS011;26336;44.696;10.622;2023-08-06T07:46:30;4.35;;;2.00;;
40637;SDS011;26336;44.696;10.622;2023-08-06T07:49:35;2.50;;;1.50;;
40637;SDS011;26336;44.696;10.622;2023-08-06T07:52:39;3.38;;;1.33;;
40637;SDS011;26336;44.696;10.622;2023-08-06T07:55:43;3.05;;;1.58;;
40637;SDS011;26336;44.696;10.622;2023-08-06T07:58:47;2.65;;;1.45;;
40637;SDS011;26336;44.696;10.622;2023-08-06T08:01:51;3.95;;;1.35;;
40637;SDS011;26336;44.696;10.622;2023-08-06T08:04:55;3.63;;;1.73;;
40637;SDS011;26336;44.696;10.622;2023-08-06T08:07:59;2.75;;;1.00;;
40637;SDS011;26336;44.696;10.622;2023-08-06T08:11:02;5.90;;;1.73;;
40637;SDS011;26336;44.696;10.622;2023-08-06T08:14:07;1.20;;;0.93;;
40637;SDS011;26336;44.696;10.622;2023-08-06T08:17:14;4.07;;;1.45;;
40637;SDS011;26336;44.696;10.622;2023-08-06T08:20:22;3.35;;;1.20;;
40637;SDS011;26336;44.696;10.622;2023-08-06T08:23:26;4.72;;;1.42;;
40637;SDS011;26336;44.696;10.622;2023-08-06T08:26:30;2.72;;;1.23;;
40637;SDS011;26336;44.696;10.622;2023-08-06T08:29:34;5.35;;;1.40;;
40637;SDS011;26336;44.696;10.622;2023-08-06T08:32:38;5.55;;;1.40;;
40637;SDS011;26336;44.696;10.622;2023-08-06T08:35:45;4.60;;;1.65;;
40637;SDS011;26336;44.696;10.622;2023-08-06T08:38:50;3.33;;;1.77;;
40637;SDS011;26336;44.696;10.622;2023-08-06T08:41:57;2.95;;;1.58;;
40637;SDS011;26336;44.696;10.622;2023-08-06T08:45:01;6.43;;;1.40;;
40637;SDS011;26336;44.696;10.622;2023-08-06T08:48:08;6.45;;;1.52;;
40637;SDS011;26336;44.696;10.622;2023-08-06T08:51:15;8.07;;;1.70;;
40637;SDS011;26336;44.696;10.622;2023-08-06T08:54:21;3.88;;;1.27;;
40637;SDS011;26336;44.696;10.622;2023-08-06T08:57:30;4.82;;;1.83;;
40637;SDS011;26336;44.696;10.622;2023-08-06T09:00:37;3.10;;;1.40;;
40637;SDS011;26336;44.696;10.622;2023-08-06T09:03:45;3.92;;;1.48;;
40637;SDS011;26336;44.696;10.622;2023-08-06T09:06:52;7.70;;;2.00;;
40637;SDS011;26336;44.696;10.622;2023-08-06T09:10:01;4.63;;;1.50;;
40637;SDS011;26336;44.696;10.622;2023-08-06T09:13:08;3.10;;;1.67;;
40637;SDS011;26336;44.696;10.622;2023-08-06T09:16:12;4.47;;;1.52;;
40637;SDS011;26336;44.696;10.622;2023-08-06T09:19:16;5.55;;;1.75;;
40637;SDS011;26336;44.696;10.622;2023-08-06T09:22:20;2.33;;;1.17;;
40637;SDS011;26336;44.696;10.622;2023-08-06T09:25:24;4.22;;;1.58;;
40637;SDS011;26336;44.696;10.622;2023-08-06T09:28:39;3.70;;;1.27;;
40637;SDS011;26336;44.696;10.622;2023-08-06T09:31:49;3.63;;;1.40;;
40637;SDS011;26336;44.696;10.622;2023-08-06T09:34:56;5.53;;;1.55;;
40637;SDS011;26336;44.696;10.622;2023-08-06T09:38:05;6.43;;;1.35;;
40637;SDS011;26336;44.696;10.622;2023-08-06T09:41:10;2.72;;;1.10;;
40637;SDS011;26336;44.696;10.622;2023-08-06T09:44:33;3.13;;;1.45;;
40637;SDS011;26336;44.696;10.622;2023-08-06T09:47:38;3.55;;;1.00;;
40637;SDS011;26336;44.696;10.622;2023-08-06T09:50:42;2.45;;;0.90;;
40637;SDS011;26336;44.696;10.622;2023-08-06T09:53:47;2.08;;;0.85;;
40637;SDS011;26336;44.696;10.622;2023-08-06T09:56:52;4.18;;;1.40;;
40637;SDS011;26336;44.696;10.622;2023-08-06T09:59:59;3.28;;;1.08;;
40637;SDS011;26336;44.696;10.622;2023-08-06T10:03:05;2.35;;;0.93;;
40637;SDS011;26336;44.696;10.622;2023-08-06T10:06:11;2.55;;;0.90;;
40637;SDS011;26336;44.696;10.622;2023-08-06T10:09:15;0.85;;;0.73;;
40637;SDS011;26336;44.696;10.622;2023-08-06T10:12:20;3.10;;;0.90;;
40637;SDS011;26336;44.696;10.622;2023-08-06T10:15:26;2.22;;;0.63;;
40637;SDS011;26336;44.696;10.622;2023-08-06T10:18:35;0.80;;;0.57;;
40637;SDS011;26336;44.696;10.622;2023-08-06T10:25:18;1.65;;;0.80;;
40637;SDS011;26336;44.696;10.622;2023-08-06T10:28:22;1.70;;;0.60;;
40637;SDS011;26336;44.696;10.622;2023-08-06T10:31:54;0.57;;;0.50;;
40637;SDS011;26336;44.696;10.622;2023-08-06T10:35:03;0.90;;;0.80;;
40637;SDS011;26336;44.696;10.622;2023-08-06T10:38:12;0.95;;;0.65;;
40637;SDS011;26336;44.696;10.622;2023-08-06T10:41:27;0.95;;;0.60;;
40637;SDS011;26336;44.696;10.622;2023-08-06T10:44:34;0.70;;;0.70;;
40637;SDS011;26336;44.696;10.622;2023-08-06T10:47:45;1.80;;;0.95;;
40637;SDS011;26336;44.696;10.622;2023-08-06T10:50:53;1.65;;;0.60;;
40637;SDS011;26336;44.696;10.622;2023-08-06T10:54:01;2.15;;;0.90;;
40637;SDS011;26336;44.696;10.622;2023-08-06T10:57:08;0.70;;;0.70;;
40637;SDS011;26336;44.696;10.622;2023-08-06T11:00:13;1.02;;;0.60;;
40637;SDS011;26336;44.696;10.622;2023-08-06T11:03:21;2.13;;;0.80;;
40637;SDS011;26336;44.696;10.622;2023-08-06T11:06:26;1.88;;;1.00;;
40637;SDS011;26336;44.696;10.622;2023-08-06T11:09:31;2.42;;;0.70;;
40637;SDS011;26336;44.696;10.622;2023-08-06T11:12:38;1.30;;;0.90;;
40637;SDS011;26336;44.696;10.622;2023-08-06T11:15:42;1.17;;;0.60;;
40637;SDS011;26336;44.696;10.622;2023-08-06T11:18:46;2.30;;;0.50;;
40637;SDS011;26336;44.696;10.622;2023-08-06T11:21:51;1.77;;;1.02;;
40637;SDS011;26336;44.696;10.622;2023-08-06T11:24:55;2.22;;;1.08;;
40637;SDS011;26336;44.696;10.622;2023-08-06T11:28:00;2.53;;;1.17;;
40637;SDS011;26336;44.696;10.622;2023-08-06T11:31:05;1.25;;;0.88;;
40637;SDS011;26336;44.696;10.622;2023-08-06T11:34:09;1.05;;;0.70;;
40637;SDS011;26336;44.696;10.622;2023-08-06T11:37:13;2.30;;;1.10;;
40637;SDS011;26336;44.696;10.622;2023-08-06T11:40:17;1.08;;;0.82;;
40637;SDS011;26336;44.696;10.622;2023-08-06T11:43:21;3.75;;;0.80;;
40637;SDS011;26336;44.696;10.622;2023-08-06T11:46:28;1.85;;;0.70;;
40637;SDS011;26336;44.696;10.622;2023-08-06T11:52:59;1.60;;;0.88;;
40637;SDS011;26336;44.696;10.622;2023-08-06T11:56:04;1.15;;;0.95;;
40637;SDS011;26336;44.696;10.622;2023-08-06T11:59:08;1.02;;;0.80;;
40637;SDS011;26336;44.696;10.622;2023-08-06T12:02:14;0.70;;;0.65;;
40637;SDS011;26336;44.696;10.622;2023-08-06T12:05:33;2.35;;;0.80;;
40637;SDS011;26336;44.696;10.622;2023-08-06T12:08:48;2.47;;;1.05;;
40637;SDS011;26336;44.696;10.622;2023-08-06T12:11:54;2.08;;;0.98;;
40637;SDS011;26336;44.696;10.622;2023-08-06T12:14:58;1.15;;;0.70;;
40637;SDS011;26336;44.696;10.622;2023-08-06T12:18:02;0.98;;;0.88;;
40637;SDS011;26336;44.696;10.622;2023-08-06T12:21:12;1.15;;;0.85;;
40637;SDS011;26336;44.696;10.622;2023-08-06T12:24:19;1.55;;;0.75;;
40637;SDS011;26336;44.696;10.622;2023-08-06T12:27:23;1.10;;;0.90;;
40637;SDS011;26336;44.696;10.622;2023-08-06T12:30:27;2.20;;;0.70;;
40637;SDS011;26336;44.696;10.622;2023-08-06T12:33:35;0.77;;;0.50;;
40637;SDS011;26336;44.696;10.622;2023-08-06T12:36:50;0.80;;;0.70;;
40637;SDS011;26336;44.696;10.622;2023-08-06T12:39:57;1.55;;;0.70;;
40637;SDS011;26336;44.696;10.622;2023-08-06T12:43:09;0.98;;;0.80;;
40637;SDS011;26336;44.696;10.622;2023-08-06T12:46:15;2.47;;;0.73;;
40637;SDS011;26336;44.696;10.622;2023-08-06T12:49:22;1.88;;;1.02;;
40637;SDS011;26336;44.696;10.622;2023-08-06T12:52:27;2.38;;;1.30;;
40637;SDS011;26336;44.696;10.622;2023-08-06T12:55:30;0.73;;;0.68;;
40637;SDS011;26336;44.696;10.622;2023-08-06T12:58:34;1.70;;;0.70;;
40637;SDS011;26336;44.696;10.622;2023-08-06T13:01:38;0.75;;;0.52;;
40637;SDS011;26336;44.696;10.622;2023-08-06T13:04:42;1.92;;;0.77;;
40637;SDS011;26336;44.696;10.622;2023-08-06T13:07:46;1.17;;;0.73;;
40637;SDS011;26336;44.696;10.622;2023-08-06T13:10:51;1.20;;;0.90;;
40637;SDS011;26336;44.696;10.622;2023-08-06T13:20:58;1.63;;;0.85;;
40637;SDS011;26336;44.696;10.622;2023-08-06T13:24:01;1.00;;;0.65;;
40637;SDS011;26336;44.696;10.622;2023-08-06T13:27:06;1.73;;;1.00;;
40637;SDS011;26336;44.696;10.622;2023-08-06T13:30:10;1.20;;;0.90;;
40637;SDS011;26336;44.696;10.622;2023-08-06T13:33:14;1.98;;;0.80;;
40637;SDS011;26336;44.696;10.622;2023-08-06T13:36:18;0.90;;;0.70;;
40637;SDS011;26336;44.696;10.622;2023-08-06T13:39:22;0.68;;;0.57;;
40637;SDS011;26336;44.696;10.622;2023-08-06T13:42:27;0.85;;;0.82;;
40637;SDS011;26336;44.696;10.622;2023-08-06T13:45:32;1.17;;;0.60;;
40637;SDS011;26336;44.696;10.622;2023-08-06T13:48:38;1.33;;;0.80;;
40637;SDS011;26336;44.696;10.622;2023-08-06T13:51:42;1.00;;;0.70;;
40637;SDS011;26336;44.696;10.622;2023-08-06T13:54:46;2.03;;;0.93;;
40637;SDS011;26336;44.696;10.622;2023-08-06T13:57:52;1.27;;;0.77;;
40637;SDS011;26336;44.696;10.622;2023-08-06T14:00:56;0.63;;;0.50;;
40637;SDS011;26336;44.696;10.622;2023-08-06T14:04:01;1.00;;;0.70;;
40637;SDS011;26336;44.696;10.622;2023-08-06T14:07:05;1.30;;;0.93;;
40637;SDS011;26336;44.696;10.622;2023-08-06T14:10:11;1.88;;;1.33;;
40637;SDS011;26336;44.696;10.622;2023-08-06T14:13:15;0.70;;;0.57;;
40637;SDS011;26336;44.696;10.622;2023-08-06T14:16:19;1.52;;;0.90;;
40637;SDS011;26336;44.696;10.622;2023-08-06T14:19:23;1.40;;;1.00;;
40637;SDS011;26336;44.696;10.622;2023-08-06T14:22:30;0.70;;;0.70;;
40637;SDS011;26336;44.696;10.622;2023-08-06T14:25:34;1.45;;;0.80;;
40637;SDS011;26336;44.696;10.622;2023-08-06T14:28:42;0.73;;;0.70;;
40637;SDS011;26336;44.696;10.622;2023-08-06T14:31:46;1.98;;;0.70;;
40637;SDS011;26336;44.696;10.622;2023-08-06T14:34:53;0.63;;;0.52;;
40637;SDS011;26336;44.696;10.622;2023-08-06T14:37:58;1.33;;;0.90;;
40637;SDS011;26336;44.696;10.622;2023-08-06T14:41:02;0.60;;;0.52;;
40637;SDS011;26336;44.696;10.622;2023-08-06T14:44:06;2.05;;;0.80;;
40637;SDS011;26336;44.696;10.622;2023-08-06T14:47:16;1.92;;;0.70;;
40637;SDS011;26336;44.696;10.622;2023-08-06T14:50:20;1.05;;;0.75;;
40637;SDS011;26336;44.696;10.622;2023-08-06T14:53:24;1.15;;;0.90;;
40637;SDS011;26336;44.696;10.622;2023-08-06T14:56:28;0.70;;;0.60;;
40637;SDS011;26336;44.696;10.622;2023-08-06T14:59:43;0.85;;;0.73;;
40637;SDS011;26336;44.696;10.622;2023-08-06T15:03:46;2.25;;;0.73;;
40637;SDS011;26336;44.696;10.622;2023-08-06T15:06:51;3.40;;;1.00;;
40637;SDS011;26336;44.696;10.622;2023-08-06T15:09:55;2.22;;;0.88;;
40637;SDS011;26336;44.696;10.622;2023-08-06T15:12:58;0.80;;;0.65;;
40637;SDS011;26336;44.696;10.622;2023-08-06T15:16:02;1.17;;;0.95;;
40637;SDS011;26336;44.696;10.622;2023-08-06T15:19:09;0.82;;;0.60;;
40637;SDS011;26336;44.696;10.622;2023-08-06T15:22:13;1.27;;;0.70;;
40637;SDS011;26336;44.696;10.622;2023-08-06T15:25:18;1.77;;;0.70;;
40637;SDS011;26336;44.696;10.622;2023-08-06T15:28:22;0.77;;;0.60;;
40637;SDS011;26336;44.696;10.622;2023-08-06T15:31:36;2.20;;;0.80;;
40637;SDS011;26336;44.696;10.622;2023-08-06T15:34:42;1.02;;;0.75;;
40637;SDS011;26336;44.696;10.622;2023-08-06T15:37:46;2.70;;;0.80;;
40637;SDS011;26336;44.696;10.622;2023-08-06T15:40:49;1.75;;;1.05;;
40637;SDS011;26336;44.696;10.622;2023-08-06T15:43:57;1.83;;;0.85;;
40637;SDS011;26336;44.696;10.622;2023-08-06T15:47:10;0.77;;;0.70;;
40637;SDS011;26336;44.696;10.622;2023-08-06T15:50:15;0.85;;;0.60;;
40637;SDS011;26336;44.696;10.622;2023-08-06T15:53:19;1.75;;;0.70;;
40637;SDS011;26336;44.696;10.622;2023-08-06T15:56:23;1.02;;;0.75;;
40637;SDS011;26336;44.696;10.622;2023-08-06T15:59:31;1.10;;;0.70;;
40637;SDS011;26336;44.696;10.622;2023-08-06T16:02:38;2.17;;;0.73;;
40637;SDS011;26336;44.696;10.622;2023-08-06T16:05:45;1.30;;;0.82;;
40637;SDS011;26336;44.696;10.622;2023-08-06T16:08:51;1.83;;;0.85;;
40637;SDS011;26336;44.696;10.622;2023-08-06T16:11:55;2.08;;;0.80;;
40637;SDS011;26336;44.696;10.622;2023-08-06T16:14:59;2.22;;;0.80;;
40637;SDS011;26336;44.696;10.622;2023-08-06T16:18:02;1.13;;;0.80;;
40637;SDS011;26336;44.696;10.622;2023-08-06T16:21:06;2.33;;;0.65;;
40637;SDS011;26336;44.696;10.622;2023-08-06T16:24:10;3.30;;;0.80;;
40637;SDS011;26336;44.696;10.622;2023-08-06T16:27:16;1.42;;;0.88;;
40637;SDS011;26336;44.696;10.622;2023-08-06T16:30:20;0.80;;;0.60;;
40637;SDS011;26336;44.696;10.622;2023-08-06T16:33:37;1.25;;;0.70;;
40637;SDS011;26336;44.696;10.622;2023-08-06T16:36:41;1.15;;;0.70;;
40637;SDS011;26336;44.696;10.622;2023-08-06T16:39:45;1.55;;;1.00;;
40637;SDS011;26336;44.696;10.622;2023-08-06T16:42:49;0.95;;;0.77;;
40637;SDS011;26336;44.696;10.622;2023-08-06T16:45:53;1.67;;;0.93;;
40637;SDS011;26336;44.696;10.622;2023-08-06T16:48:58;1.38;;;0.80;;
40637;SDS011;26336;44.696;10.622;2023-08-06T16:52:02;0.90;;;0.65;;
40637;SDS011;26336;44.696;10.622;2023-08-06T16:55:10;1.00;;;0.68;;
40637;SDS011;26336;44.696;10.622;2023-08-06T16:58:14;2.22;;;0.90;;
40637;SDS011;26336;44.696;10.622;2023-08-06T17:01:18;1.08;;;0.70;;
40637;SDS011;26336;44.696;10.622;2023-08-06T17:04:25;1.45;;;0.70;;
40637;SDS011;26336;44.696;10.622;2023-08-06T17:07:29;1.67;;;0.82;;
40637;SDS011;26336;44.696;10.622;2023-08-06T17:10:37;3.45;;;0.80;;
40637;SDS011;26336;44.696;10.622;2023-08-06T17:13:44;1.58;;;0.90;;
40637;SDS011;26336;44.696;10.622;2023-08-06T17:16:48;1.50;;;0.88;;
40637;SDS011;26336;44.696;10.622;2023-08-06T17:19:52;1.15;;;0.90;;
40637;SDS011;26336;44.696;10.622;2023-08-06T17:22:56;1.15;;;0.82;;
40637;SDS011;26336;44.696;10.622;2023-08-06T17:26:00;1.10;;;0.88;;
40637;SDS011;26336;44.696;10.622;2023-08-06T17:29:07;1.70;;;1.27;;
40637;SDS011;26336;44.696;10.622;2023-08-06T17:32:11;2.35;;;1.20;;
40637;SDS011;26336;44.696;10.622;2023-08-06T17:35:16;1.92;;;0.90;;
40637;SDS011;26336;44.696;10.622;2023-08-06T17:38:20;1.05;;;0.90;;
40637;SDS011;26336;44.696;10.622;2023-08-06T17:41:24;2.60;;;0.80;;
40637;SDS011;26336;44.696;10.622;2023-08-06T17:44:32;1.40;;;0.90;;
40637;SDS011;26336;44.696;10.622;2023-08-06T17:47:36;0.88;;;0.73;;
40637;SDS011;26336;44.696;10.622;2023-08-06T17:50:40;2.45;;;1.70;;
40637;SDS011;26336;44.696;10.622;2023-08-06T17:53:45;1.42;;;1.13;;
40637;SDS011;26336;44.696;10.622;2023-08-06T17:56:49;1.48;;;1.17;;
40637;SDS011;26336;44.696;10.622;2023-08-06T17:59:56;1.30;;;0.93;;
40637;SDS011;26336;44.696;10.622;2023-08-06T18:03:00;1.33;;;0.70;;
40637;SDS011;26336;44.696;10.622;2023-08-06T18:06:03;1.40;;;0.80;;
40637;SDS011;26336;44.696;10.622;2023-08-06T18:09:07;1.10;;;0.70;;
40637;SDS011;26336;44.696;10.622;2023-08-06T18:12:11;2.00;;;0.80;;
40637;SDS011;26336;44.696;10.622;2023-08-06T18:15:15;2.38;;;0.82;;
40637;SDS011;26336;44.696;10.622;2023-08-06T18:18:19;1.30;;;0.90;;
40637;SDS011;26336;44.696;10.622;2023-08-06T18:21:23;1.23;;;0.85;;
40637;SDS011;26336;44.696;10.622;2023-08-06T18:24:30;1.10;;;0.65;;
40637;SDS011;26336;44.696;10.622;2023-08-06T18:27:34;1.35;;;1.10;;
40637;SDS011;26336;44.696;10.622;2023-08-06T18:30:39;1.67;;;1.20;;
40637;SDS011;26336;44.696;10.622;2023-08-06T18:33:43;2.60;;;1.02;;
40637;SDS011;26336;44.696;10.622;2023-08-06T18:36:48;1.27;;;0.95;;
40637;SDS011;26336;44.696;10.622;2023-08-06T18:39:52;2.00;;;0.80;;
40637;SDS011;26336;44.696;10.622;2023-08-06T18:42:58;1.40;;;0.80;;